sensor_id;sensor_type;location;lat;lon;timestamp;P1;durP1;ratioP1;P2;durP2;ratioP2
68319;SDS011;55168;51.120;17.024;2023-02-19T00:00:00;7.3;;;6.6;;
68319;SDS011;55168;51.120;17.024;2023-02-19T00:01:00;7.3;;;6.6;;
68319;SDS011;55168;51.120;17.024;2023-02-19T00:02:00;7.3;;;6.6;;
68319;SDS011;55168;51.120;17.024;2023-02-19T00:03:00;7.7;;;6.8;;
68319;SDS011;55168;51.120;17.024;2023-02-19T00:04:03;7.7;;;6.8;;
68319;SDS011;55168;51.120;17.024;2023-02-19T00:05:00;7.7;;;6.8;;
68319;SDS011;55168;51.120;17.024;2023-02-19T00:06:00;7.7;;;6.8;;
68319;SDS011;55168;51.120;17.024;2023-02-19T00:07:00;7.7;;;6.8;;
68319;SDS011;55168;51.120;17.024;2023-02-19T00:08:00;6.8;;;6.1;;
68319;SDS011;55168;51.120;17.024;2023-02-19T00:09:00;6.8;;;6.1;;
68319;SDS011;55168;51.120;17.024;2023-02-19T00:10:00;6.8;;;6.1;;
68319;SDS011;55168;51.120;17.024;2023-02-19T00:11:03;6.8;;;6.1;;
68319;SDS011;55168;51.120;17.024;2023-02-19T00:12:00;6.8;;;6.1;;
68319;SDS011;55168;51.120;17.024;2023-02-19T00:13:00;7.3;;;6.5;;
68319;SDS011;55168;51.120;17.024;2023-02-19T00:14:01;7.3;;;6.5;;
68319;SDS011;55168;51.120;17.024;2023-02-19T00:15:00;7.3;;;6.5;;
68319;SDS011;55168;51.120;17.024;2023-02-19T00:16:05;7.3;;;6.5;;
68319;SDS011;55168;51.120;17.024;2023-02-19T00:17:00;7.3;;;6.5;;
68319;SDS011;55168;51.120;17.024;2023-02-19T00:18:00;6.5;;;5.8;;
68319;SDS011;55168;51.120;17.024;2023-02-19T00:19:01;6.5;;;5.8;;
68319;SDS011;55168;51.120;17.024;2023-02-19T00:20:00;6.5;;;5.8;;
68319;SDS011;55168;51.120;17.024;2023-02-19T00:21:01;6.5;;;5.8;;
68319;SDS011;55168;51.120;17.024;2023-02-19T00:22:00;6.5;;;5.8;;
68319;SDS011;55168;51.120;17.024;2023-02-19T00:23:00;7.5;;;6.0;;
68319;SDS011;55168;51.120;17.024;2023-02-19T00:24:03;7.5;;;6.0;;
68319;SDS011;55168;51.120;17.024;2023-02-19T00:25:00;7.5;;;6.0;;
68319;SDS011;55168;51.120;17.024;2023-02-19T00:26:01;7.5;;;6.0;;
68319;SDS011;55168;51.120;17.024;2023-02-19T00:27:00;7.5;;;6.0;;
68319;SDS011;55168;51.120;17.024;2023-02-19T00:28:00;6.4;;;5.7;;
68319;SDS011;55168;51.120;17.024;2023-02-19T00:29:00;6.4;;;5.7;;
68319;SDS011;55168;51.120;17.024;2023-02-19T00:30:00;6.4;;;5.7;;
68319;SDS011;55168;51.120;17.024;2023-02-19T00:31:05;6.4;;;5.7;;
68319;SDS011;55168;51.120;17.024;2023-02-19T00:32:00;6.4;;;5.7;;
68319;SDS011;55168;51.120;17.024;2023-02-19T00:33:00;6.1;;;5.5;;
68319;SDS011;55168;51.120;17.024;2023-02-19T00:34:03;6.1;;;5.5;;
68319;SDS011;55168;51.120;17.024;2023-02-19T00:35:00;6.1;;;5.5;;
68319;SDS011;55168;51.120;17.024;2023-02-19T00:36:02;6.1;;;5.5;;
68319;SDS011;55168;51.120;17.024;2023-02-19T00:37:00;6.1;;;5.5;;
68319;SDS011;55168;51.120;17.024;2023-02-19T00:38:00;6.5;;;5.7;;
68319;SDS011;55168;51.120;17.024;2023-02-19T00:39:00;6.5;;;5.7;;
68319;SDS011;55168;51.120;17.024;2023-02-19T00:40:00;6.5;;;5.7;;
68319;SDS011;55168;51.120;17.024;2023-02-19T00:41:00;6.5;;;5.7;;
68319;SDS011;55168;51.120;17.024;2023-02-19T00:42:00;6.5;;;5.7;;
68319;SDS011;55168;51.120;17.024;2023-02-19T00:43:00;6.4;;;5.5;;
68319;SDS011;55168;51.120;17.024;2023-02-19T00:44:02;6.4;;;5.5;;
68319;SDS011;55168;51.120;17.024;2023-02-19T00:45:00;6.4;;;5.5;;
68319;SDS011;55168;51.120;17.024;2023-02-19T00:46:00;6.4;;;5.5;;
68319;SDS011;55168;51.120;17.024;2023-02-19T00:47:00;6.5;;;5.8;;
68319;SDS011;55168;51.120;17.024;2023-02-19T00:48:00;6.5;;;5.8;;
68319;SDS011;55168;51.120;17.024;2023-02-19T00:49:00;6.5;;;5.8;;
68319;SDS011;55168;51.120;17.024;2023-02-19T00:50:00;6.5;;;5.8;;
68319;SDS011;55168;51.120;17.024;2023-02-19T00:51:00;6.5;;;5.8;;
68319;SDS011;55168;51.120;17.024;2023-02-19T00:52:00;6.0;;;5.4;;
68319;SDS011;55168;51.120;17.024;2023-02-19T00:53:00;6.0;;;5.4;;
68319;SDS011;55168;51.120;17.024;2023-02-19T00:54:00;6.0;;;5.4;;
68319;SDS011;55168;51.120;17.024;2023-02-19T00:55:00;6.0;;;5.4;;
68319;SDS011;55168;51.120;17.024;2023-02-19T00:56:00;6.0;;;5.4;;
68319;SDS011;55168;51.120;17.024;2023-02-19T00:57:00;5.7;;;5.2;;
68319;SDS011;55168;51.120;17.024;2023-02-19T00:58:00;5.7;;;5.2;;
68319;SDS011;55168;51.120;17.024;2023-02-19T00:59:00;5.7;;;5.2;;
68319;SDS011;55168;51.120;17.024;2023-02-19T01:00:00;5.7;;;5.2;;
68319;SDS011;55168;51.120;17.024;2023-02-19T01:01:00;5.7;;;5.2;;
68319;SDS011;55168;51.120;17.024;2023-02-19T01:02:00;6.6;;;5.4;;
68319;SDS011;55168;51.120;17.024;2023-02-19T01:03:00;6.6;;;5.4;;
68319;SDS011;55168;51.120;17.024;2023-02-19T01:04:00;6.6;;;5.4;;
68319;SDS011;55168;51.120;17.024;2023-02-19T01:05:00;6.6;;;5.4;;
68319;SDS011;55168;51.120;17.024;2023-02-19T01:06:01;6.6;;;5.4;;
68319;SDS011;55168;51.120;17.024;2023-02-19T01:07:00;6.7;;;6.0;;
68319;SDS011;55168;51.120;17.024;2023-02-19T01:08:00;6.7;;;6.0;;
68319;SDS011;55168;51.120;17.024;2023-02-19T01:09:00;6.7;;;6.0;;
68319;SDS011;55168;51.120;17.024;2023-02-19T01:10:00;6.7;;;6.0;;
68319;SDS011;55168;51.120;17.024;2023-02-19T01:11:02;6.7;;;6.0;;
68319;SDS011;55168;51.120;17.024;2023-02-19T01:12:00;6.3;;;5.7;;
68319;SDS011;55168;51.120;17.024;2023-02-19T01:13:00;6.3;;;5.7;;
68319;SDS011;55168;51.120;17.024;2023-02-19T01:14:00;6.3;;;5.7;;
68319;SDS011;55168;51.120;17.024;2023-02-19T01:15:00;6.3;;;5.7;;
68319;SDS011;55168;51.120;17.024;2023-02-19T01:16:05;6.3;;;5.7;;
68319;SDS011;55168;51.120;17.024;2023-02-19T01:17:00;6.2;;;5.6;;
68319;SDS011;55168;51.120;17.024;2023-02-19T01:18:00;6.2;;;5.6;;
68319;SDS011;55168;51.120;17.024;2023-02-19T01:19:00;6.2;;;5.6;;
68319;SDS011;55168;51.120;17.024;2023-02-19T01:20:00;6.2;;;5.6;;
68319;SDS011;55168;51.120;17.024;2023-02-19T01:21:05;6.2;;;5.6;;
68319;SDS011;55168;51.120;17.024;2023-02-19T01:22:00;6.1;;;5.5;;
68319;SDS011;55168;51.120;17.024;2023-02-19T01:23:00;6.1;;;5.5;;
68319;SDS011;55168;51.120;17.024;2023-02-19T01:24:00;6.1;;;5.5;;
68319;SDS011;55168;51.120;17.024;2023-02-19T01:25:00;6.1;;;5.5;;
68319;SDS011;55168;51.120;17.024;2023-02-19T01:26:03;6.1;;;5.5;;
68319;SDS011;55168;51.120;17.024;2023-02-19T01:27:00;6.3;;;5.7;;
68319;SDS011;55168;51.120;17.024;2023-02-19T01:28:00;6.3;;;5.7;;
68319;SDS011;55168;51.120;17.024;2023-02-19T01:29:00;6.3;;;5.7;;
68319;SDS011;55168;51.120;17.024;2023-02-19T01:30:00;6.3;;;5.7;;
68319;SDS011;55168;51.120;17.024;2023-02-19T01:31:01;6.3;;;5.7;;
68319;SDS011;55168;51.120;17.024;2023-02-19T01:32:00;6.4;;;5.8;;
68319;SDS011;55168;51.120;17.024;2023-02-19T01:33:00;6.4;;;5.8;;
68319;SDS011;55168;51.120;17.024;2023-02-19T01:34:01;6.4;;;5.8;;
68319;SDS011;55168;51.120;17.024;2023-02-19T01:35:00;6.4;;;5.8;;
68319;SDS011;55168;51.120;17.024;2023-02-19T01:36:03;6.4;;;5.8;;
68319;SDS011;55168;51.120;17.024;2023-02-19T01:37:00;6.5;;;5.8;;
68319;SDS011;55168;51.120;17.024;2023-02-19T01:38:00;6.5;;;5.8;;
68319;SDS011;55168;51.120;17.024;2023-02-19T01:39:02;6.5;;;5.8;;
68319;SDS011;55168;51.120;17.024;2023-02-19T01:40:00;6.5;;;5.8;;
68319;SDS011;55168;51.120;17.024;2023-02-19T01:41:03;6.5;;;5.8;;
68319;SDS011;55168;51.120;17.024;2023-02-19T01:42:00;6.0;;;5.2;;
68319;SDS011;55168;51.120;17.024;2023-02-19T01:43:00;6.0;;;5.2;;
68319;SDS011;55168;51.120;17.024;2023-02-19T01:44:06;6.0;;;5.2;;
68319;SDS011;55168;51.120;17.024;2023-02-19T01:45:14;6.0;;;5.2;;
68319;SDS011;55168;51.120;17.024;2023-02-19T01:46:00;6.0;;;5.2;;
68319;SDS011;55168;51.120;17.024;2023-02-19T01:47:00;6.7;;;5.0;;
68319;SDS011;55168;51.120;17.024;2023-02-19T01:48:05;6.7;;;5.0;;
68319;SDS011;55168;51.120;17.024;2023-02-19T01:49:05;6.7;;;5.0;;
68319;SDS011;55168;51.120;17.024;2023-02-19T01:50:00;6.7;;;5.0;;
68319;SDS011;55168;51.120;17.024;2023-02-19T01:51:04;6.7;;;5.0;;
68319;SDS011;55168;51.120;17.024;2023-02-19T01:52:05;5.2;;;4.7;;
68319;SDS011;55168;51.120;17.024;2023-02-19T01:53:01;5.2;;;4.7;;
68319;SDS011;55168;51.120;17.024;2023-02-19T01:54:02;5.2;;;4.7;;
68319;SDS011;55168;51.120;17.024;2023-02-19T01:55:01;5.2;;;4.7;;
68319;SDS011;55168;51.120;17.024;2023-02-19T01:56:01;5.2;;;4.7;;
68319;SDS011;55168;51.120;17.024;2023-02-19T01:57:03;5.7;;;5.1;;
68319;SDS011;55168;51.120;17.024;2023-02-19T01:58:00;5.7;;;5.1;;
68319;SDS011;55168;51.120;17.024;2023-02-19T01:59:00;5.7;;;5.1;;
68319;SDS011;55168;51.120;17.024;2023-02-19T02:00:06;5.7;;;5.1;;
68319;SDS011;55168;51.120;17.024;2023-02-19T02:01:02;5.7;;;5.1;;
68319;SDS011;55168;51.120;17.024;2023-02-19T02:02:00;5.9;;;5.3;;
68319;SDS011;55168;51.120;17.024;2023-02-19T02:03:00;5.9;;;5.3;;
68319;SDS011;55168;51.120;17.024;2023-02-19T02:04:00;5.9;;;5.3;;
68319;SDS011;55168;51.120;17.024;2023-02-19T02:05:00;5.9;;;5.3;;
68319;SDS011;55168;51.120;17.024;2023-02-19T02:06:04;5.9;;;5.3;;
68319;SDS011;55168;51.120;17.024;2023-02-19T02:07:02;5.8;;;5.3;;
68319;SDS011;55168;51.120;17.024;2023-02-19T02:08:01;5.8;;;5.3;;
68319;SDS011;55168;51.120;17.024;2023-02-19T02:09:00;5.8;;;5.3;;
68319;SDS011;55168;51.120;17.024;2023-02-19T02:10:01;5.8;;;5.3;;
68319;SDS011;55168;51.120;17.024;2023-02-19T02:11:00;5.8;;;5.3;;
68319;SDS011;55168;51.120;17.024;2023-02-19T02:12:00;6.2;;;5.6;;
68319;SDS011;55168;51.120;17.024;2023-02-19T02:13:00;6.2;;;5.6;;
68319;SDS011;55168;51.120;17.024;2023-02-19T02:14:00;6.2;;;5.6;;
68319;SDS011;55168;51.120;17.024;2023-02-19T02:15:00;6.2;;;5.6;;
68319;SDS011;55168;51.120;17.024;2023-02-19T02:16:13;6.2;;;5.6;;
68319;SDS011;55168;51.120;17.024;2023-02-19T02:18:05;6.7;;;5.7;;
68319;SDS011;55168;51.120;17.024;2023-02-19T02:19:04;6.7;;;5.7;;
68319;SDS011;55168;51.120;17.024;2023-02-19T02:22:06;8.0;;;6.6;;
68319;SDS011;55168;51.120;17.024;2023-02-19T02:25:16;8.0;;;6.6;;
68319;SDS011;55168;51.120;17.024;2023-02-19T02:26:15;8.0;;;6.6;;
68319;SDS011;55168;51.120;17.024;2023-02-19T02:27:16;7.1;;;6.4;;
68319;SDS011;55168;51.120;17.024;2023-02-19T02:28:10;7.1;;;6.4;;
68319;SDS011;55168;51.120;17.024;2023-02-19T02:29:20;7.1;;;6.4;;
68319;SDS011;55168;51.120;17.024;2023-02-19T02:30:06;7.1;;;6.4;;
68319;SDS011;55168;51.120;17.024;2023-02-19T02:31:03;7.1;;;6.4;;
68319;SDS011;55168;51.120;17.024;2023-02-19T02:32:04;7.8;;;6.7;;
68319;SDS011;55168;51.120;17.024;2023-02-19T02:33:05;7.8;;;6.7;;
68319;SDS011;55168;51.120;17.024;2023-02-19T02:34:05;7.8;;;6.7;;
68319;SDS011;55168;51.120;17.024;2023-02-19T02:35:06;7.8;;;6.7;;
68319;SDS011;55168;51.120;17.024;2023-02-19T02:36:12;7.8;;;6.7;;
68319;SDS011;55168;51.120;17.024;2023-02-19T02:37:01;7.5;;;6.7;;
68319;SDS011;55168;51.120;17.024;2023-02-19T02:38:04;7.5;;;6.7;;
68319;SDS011;55168;51.120;17.024;2023-02-19T02:39:02;7.5;;;6.7;;
68319;SDS011;55168;51.120;17.024;2023-02-19T02:40:01;7.5;;;6.7;;
68319;SDS011;55168;51.120;17.024;2023-02-19T02:41:01;7.5;;;6.7;;
68319;SDS011;55168;51.120;17.024;2023-02-19T02:42:00;7.4;;;6.7;;
68319;SDS011;55168;51.120;17.024;2023-02-19T02:43:00;7.4;;;6.7;;
68319;SDS011;55168;51.120;17.024;2023-02-19T02:44:00;7.4;;;6.7;;
68319;SDS011;55168;51.120;17.024;2023-02-19T02:46:00;7.4;;;6.7;;
68319;SDS011;55168;51.120;17.024;2023-02-19T02:47:02;8.1;;;6.7;;
68319;SDS011;55168;51.120;17.024;2023-02-19T02:48:04;8.1;;;6.7;;
68319;SDS011;55168;51.120;17.024;2023-02-19T02:49:02;8.1;;;6.7;;
68319;SDS011;55168;51.120;17.024;2023-02-19T02:50:00;8.1;;;6.7;;
68319;SDS011;55168;51.120;17.024;2023-02-19T02:51:19;8.1;;;6.7;;
68319;SDS011;55168;51.120;17.024;2023-02-19T02:52:01;7.2;;;6.4;;
68319;SDS011;55168;51.120;17.024;2023-02-19T02:53:04;7.2;;;6.4;;
68319;SDS011;55168;51.120;17.024;2023-02-19T02:54:06;7.2;;;6.4;;
68319;SDS011;55168;51.120;17.024;2023-02-19T02:55:00;7.2;;;6.4;;
68319;SDS011;55168;51.120;17.024;2023-02-19T02:56:00;7.2;;;6.4;;
68319;SDS011;55168;51.120;17.024;2023-02-19T02:57:00;7.2;;;6.5;;
68319;SDS011;55168;51.120;17.024;2023-02-19T02:58:00;7.2;;;6.5;;
68319;SDS011;55168;51.120;17.024;2023-02-19T02:59:03;7.2;;;6.5;;
68319;SDS011;55168;51.120;17.024;2023-02-19T03:00:00;7.2;;;6.5;;
68319;SDS011;55168;51.120;17.024;2023-02-19T03:01:06;7.2;;;6.5;;
68319;SDS011;55168;51.120;17.024;2023-02-19T03:02:04;7.8;;;6.4;;
68319;SDS011;55168;51.120;17.024;2023-02-19T03:03:00;7.8;;;6.4;;
68319;SDS011;55168;51.120;17.024;2023-02-19T03:04:03;7.8;;;6.4;;
68319;SDS011;55168;51.120;17.024;2023-02-19T03:05:10;7.8;;;6.4;;
68319;SDS011;55168;51.120;17.024;2023-02-19T03:06:03;7.8;;;6.4;;
68319;SDS011;55168;51.120;17.024;2023-02-19T03:07:04;7.3;;;6.6;;
68319;SDS011;55168;51.120;17.024;2023-02-19T03:08:12;7.3;;;6.6;;
68319;SDS011;55168;51.120;17.024;2023-02-19T03:09:06;7.3;;;6.6;;
68319;SDS011;55168;51.120;17.024;2023-02-19T03:10:02;7.3;;;6.6;;
68319;SDS011;55168;51.120;17.024;2023-02-19T03:11:05;7.3;;;6.6;;
68319;SDS011;55168;51.120;17.024;2023-02-19T03:12:02;7.5;;;6.7;;
68319;SDS011;55168;51.120;17.024;2023-02-19T03:13:01;7.5;;;6.7;;
68319;SDS011;55168;51.120;17.024;2023-02-19T03:14:05;7.5;;;6.7;;
68319;SDS011;55168;51.120;17.024;2023-02-19T03:15:05;7.5;;;6.7;;
68319;SDS011;55168;51.120;17.024;2023-02-19T03:16:05;7.5;;;6.7;;
68319;SDS011;55168;51.120;17.024;2023-02-19T03:17:09;7.3;;;6.6;;
68319;SDS011;55168;51.120;17.024;2023-02-19T03:18:03;7.3;;;6.6;;
68319;SDS011;55168;51.120;17.024;2023-02-19T03:19:00;7.3;;;6.6;;
68319;SDS011;55168;51.120;17.024;2023-02-19T03:20:03;7.3;;;6.6;;
68319;SDS011;55168;51.120;17.024;2023-02-19T03:21:03;7.3;;;6.6;;
68319;SDS011;55168;51.120;17.024;2023-02-19T03:22:06;7.9;;;7.1;;
68319;SDS011;55168;51.120;17.024;2023-02-19T03:23:00;7.9;;;7.1;;
68319;SDS011;55168;51.120;17.024;2023-02-19T03:24:02;7.9;;;7.1;;
68319;SDS011;55168;51.120;17.024;2023-02-19T03:25:07;7.9;;;7.1;;
68319;SDS011;55168;51.120;17.024;2023-02-19T03:26:00;7.9;;;7.1;;
68319;SDS011;55168;51.120;17.024;2023-02-19T03:27:02;7.8;;;7.0;;
68319;SDS011;55168;51.120;17.024;2023-02-19T03:28:02;7.8;;;7.0;;
68319;SDS011;55168;51.120;17.024;2023-02-19T03:29:03;7.8;;;7.0;;
68319;SDS011;55168;51.120;17.024;2023-02-19T03:30:04;7.8;;;7.0;;
68319;SDS011;55168;51.120;17.024;2023-02-19T03:31:00;7.8;;;7.0;;
68319;SDS011;55168;51.120;17.024;2023-02-19T03:32:03;8.0;;;7.2;;
68319;SDS011;55168;51.120;17.024;2023-02-19T03:34:02;8.0;;;7.2;;
68319;SDS011;55168;51.120;17.024;2023-02-19T03:35:05;8.0;;;7.2;;
68319;SDS011;55168;51.120;17.024;2023-02-19T03:36:03;8.0;;;7.2;;
68319;SDS011;55168;51.120;17.024;2023-02-19T03:37:08;7.6;;;6.8;;
68319;SDS011;55168;51.120;17.024;2023-02-19T03:38:03;7.6;;;6.8;;
68319;SDS011;55168;51.120;17.024;2023-02-19T03:39:06;7.6;;;6.8;;
68319;SDS011;55168;51.120;17.024;2023-02-19T03:40:00;7.6;;;6.8;;
68319;SDS011;55168;51.120;17.024;2023-02-19T03:41:07;7.6;;;6.8;;
68319;SDS011;55168;51.120;17.024;2023-02-19T03:42:05;7.8;;;7.0;;
68319;SDS011;55168;51.120;17.024;2023-02-19T03:44:12;7.8;;;7.0;;
68319;SDS011;55168;51.120;17.024;2023-02-19T03:45:14;7.8;;;7.0;;
68319;SDS011;55168;51.120;17.024;2023-02-19T03:46:12;7.8;;;7.0;;
68319;SDS011;55168;51.120;17.024;2023-02-19T03:47:08;7.7;;;6.9;;
68319;SDS011;55168;51.120;17.024;2023-02-19T03:48:11;7.7;;;6.9;;
68319;SDS011;55168;51.120;17.024;2023-02-19T03:49:03;7.7;;;6.9;;
68319;SDS011;55168;51.120;17.024;2023-02-19T03:50:14;7.7;;;6.9;;
68319;SDS011;55168;51.120;17.024;2023-02-19T03:51:11;7.7;;;6.9;;
68319;SDS011;55168;51.120;17.024;2023-02-19T03:52:09;7.8;;;7.0;;
68319;SDS011;55168;51.120;17.024;2023-02-19T03:53:08;7.8;;;7.0;;
68319;SDS011;55168;51.120;17.024;2023-02-19T03:54:06;7.8;;;7.0;;
68319;SDS011;55168;51.120;17.024;2023-02-19T03:55:14;7.8;;;7.0;;
68319;SDS011;55168;51.120;17.024;2023-02-19T03:56:08;7.8;;;7.0;;
68319;SDS011;55168;51.120;17.024;2023-02-19T03:57:05;8.1;;;7.3;;
68319;SDS011;55168;51.120;17.024;2023-02-19T03:59:12;8.1;;;7.3;;
68319;SDS011;55168;51.120;17.024;2023-02-19T04:00:12;8.1;;;7.3;;
68319;SDS011;55168;51.120;17.024;2023-02-19T04:01:07;8.1;;;7.3;;
68319;SDS011;55168;51.120;17.024;2023-02-19T04:02:09;8.3;;;7.5;;
68319;SDS011;55168;51.120;17.024;2023-02-19T04:03:05;8.3;;;7.5;;
68319;SDS011;55168;51.120;17.024;2023-02-19T04:04:06;8.3;;;7.5;;
68319;SDS011;55168;51.120;17.024;2023-02-19T04:05:06;8.3;;;7.5;;
68319;SDS011;55168;51.120;17.024;2023-02-19T04:06:03;8.3;;;7.5;;
68319;SDS011;55168;51.120;17.024;2023-02-19T04:07:00;10.5;;;8.7;;
68319;SDS011;55168;51.120;17.024;2023-02-19T04:08:07;10.5;;;8.7;;
68319;SDS011;55168;51.120;17.024;2023-02-19T04:09:02;10.5;;;8.7;;
68319;SDS011;55168;51.120;17.024;2023-02-19T04:10:00;10.5;;;8.7;;
68319;SDS011;55168;51.120;17.024;2023-02-19T04:11:00;10.5;;;8.7;;
68319;SDS011;55168;51.120;17.024;2023-02-19T04:12:00;10.2;;;9.1;;
68319;SDS011;55168;51.120;17.024;2023-02-19T04:13:04;10.2;;;9.1;;
68319;SDS011;55168;51.120;17.024;2023-02-19T04:14:06;10.2;;;9.1;;
68319;SDS011;55168;51.120;17.024;2023-02-19T04:15:02;10.2;;;9.1;;
68319;SDS011;55168;51.120;17.024;2023-02-19T04:16:03;10.2;;;9.1;;
68319;SDS011;55168;51.120;17.024;2023-02-19T04:17:02;10.0;;;8.9;;
68319;SDS011;55168;51.120;17.024;2023-02-19T04:18:05;10.0;;;8.9;;
68319;SDS011;55168;51.120;17.024;2023-02-19T04:19:05;10.0;;;8.9;;
68319;SDS011;55168;51.120;17.024;2023-02-19T04:20:03;10.0;;;8.9;;
68319;SDS011;55168;51.120;17.024;2023-02-19T04:21:01;10.0;;;8.9;;
68319;SDS011;55168;51.120;17.024;2023-02-19T04:22:00;10.7;;;9.1;;
68319;SDS011;55168;51.120;17.024;2023-02-19T04:23:00;10.7;;;9.1;;
68319;SDS011;55168;51.120;17.024;2023-02-19T04:24:05;10.7;;;9.1;;
68319;SDS011;55168;51.120;17.024;2023-02-19T04:25:00;10.7;;;9.1;;
68319;SDS011;55168;51.120;17.024;2023-02-19T04:26:01;10.7;;;9.1;;
68319;SDS011;55168;51.120;17.024;2023-02-19T04:27:01;9.3;;;8.4;;
68319;SDS011;55168;51.120;17.024;2023-02-19T04:28:00;9.3;;;8.4;;
68319;SDS011;55168;51.120;17.024;2023-02-19T04:29:00;9.3;;;8.4;;
68319;SDS011;55168;51.120;17.024;2023-02-19T04:30:00;9.3;;;8.4;;
68319;SDS011;55168;51.120;17.024;2023-02-19T04:31:00;9.3;;;8.4;;
68319;SDS011;55168;51.120;17.024;2023-02-19T04:32:00;9.4;;;8.3;;
68319;SDS011;55168;51.120;17.024;2023-02-19T04:33:00;9.4;;;8.3;;
68319;SDS011;55168;51.120;17.024;2023-02-19T04:34:01;9.4;;;8.3;;
68319;SDS011;55168;51.120;17.024;2023-02-19T04:35:00;9.4;;;8.3;;
68319;SDS011;55168;51.120;17.024;2023-02-19T04:36:00;9.4;;;8.3;;
68319;SDS011;55168;51.120;17.024;2023-02-19T04:37:00;9.3;;;8.3;;
68319;SDS011;55168;51.120;17.024;2023-02-19T04:38:00;9.3;;;8.3;;
68319;SDS011;55168;51.120;17.024;2023-02-19T04:39:00;9.3;;;8.3;;
68319;SDS011;55168;51.120;17.024;2023-02-19T04:40:00;9.3;;;8.3;;
68319;SDS011;55168;51.120;17.024;2023-02-19T04:41:00;9.3;;;8.3;;
68319;SDS011;55168;51.120;17.024;2023-02-19T04:42:00;9.4;;;8.4;;
68319;SDS011;55168;51.120;17.024;2023-02-19T04:43:00;9.4;;;8.4;;
68319;SDS011;55168;51.120;17.024;2023-02-19T04:44:00;9.4;;;8.4;;
68319;SDS011;55168;51.120;17.024;2023-02-19T04:45:00;9.4;;;8.4;;
68319;SDS011;55168;51.120;17.024;2023-02-19T04:46:00;9.4;;;8.4;;
68319;SDS011;55168;51.120;17.024;2023-02-19T04:47:00;8.8;;;7.8;;
68319;SDS011;55168;51.120;17.024;2023-02-19T04:48:00;8.8;;;7.8;;
68319;SDS011;55168;51.120;17.024;2023-02-19T04:49:00;8.8;;;7.8;;
68319;SDS011;55168;51.120;17.024;2023-02-19T04:50:00;8.8;;;7.8;;
68319;SDS011;55168;51.120;17.024;2023-02-19T04:51:03;8.8;;;7.8;;
68319;SDS011;55168;51.120;17.024;2023-02-19T04:52:00;8.9;;;8.0;;
68319;SDS011;55168;51.120;17.024;2023-02-19T04:53:00;8.9;;;8.0;;
68319;SDS011;55168;51.120;17.024;2023-02-19T04:54:00;8.9;;;8.0;;
68319;SDS011;55168;51.120;17.024;2023-02-19T04:55:00;8.9;;;8.0;;
68319;SDS011;55168;51.120;17.024;2023-02-19T04:56:11;8.9;;;8.0;;
68319;SDS011;55168;51.120;17.024;2023-02-19T04:57:00;8.4;;;7.5;;
68319;SDS011;55168;51.120;17.024;2023-02-19T04:58:00;8.4;;;7.5;;
68319;SDS011;55168;51.120;17.024;2023-02-19T04:59:00;8.4;;;7.5;;
68319;SDS011;55168;51.120;17.024;2023-02-19T05:00:00;8.4;;;7.5;;
68319;SDS011;55168;51.120;17.024;2023-02-19T05:01:00;8.4;;;7.5;;
68319;SDS011;55168;51.120;17.024;2023-02-19T05:02:00;8.7;;;7.8;;
68319;SDS011;55168;51.120;17.024;2023-02-19T05:03:00;8.7;;;7.8;;
68319;SDS011;55168;51.120;17.024;2023-02-19T05:04:00;8.7;;;7.8;;
68319;SDS011;55168;51.120;17.024;2023-02-19T05:05:00;8.7;;;7.8;;
68319;SDS011;55168;51.120;17.024;2023-02-19T05:06:03;8.7;;;7.8;;
68319;SDS011;55168;51.120;17.024;2023-02-19T05:07:00;9.1;;;8.0;;
68319;SDS011;55168;51.120;17.024;2023-02-19T05:08:00;9.1;;;8.0;;
68319;SDS011;55168;51.120;17.024;2023-02-19T05:09:00;9.1;;;8.0;;
68319;SDS011;55168;51.120;17.024;2023-02-19T05:10:00;9.1;;;8.0;;
68319;SDS011;55168;51.120;17.024;2023-02-19T05:11:02;9.1;;;8.0;;
68319;SDS011;55168;51.120;17.024;2023-02-19T05:12:00;8.9;;;8.0;;
68319;SDS011;55168;51.120;17.024;2023-02-19T05:13:00;8.9;;;8.0;;
68319;SDS011;55168;51.120;17.024;2023-02-19T05:14:00;8.9;;;8.0;;
68319;SDS011;55168;51.120;17.024;2023-02-19T05:15:00;8.9;;;8.0;;
68319;SDS011;55168;51.120;17.024;2023-02-19T05:16:02;8.9;;;8.0;;
68319;SDS011;55168;51.120;17.024;2023-02-19T05:17:00;9.1;;;8.1;;
68319;SDS011;55168;51.120;17.024;2023-02-19T05:18:00;9.1;;;8.1;;
68319;SDS011;55168;51.120;17.024;2023-02-19T05:19:00;9.1;;;8.1;;
68319;SDS011;55168;51.120;17.024;2023-02-19T05:20:00;9.1;;;8.1;;
68319;SDS011;55168;51.120;17.024;2023-02-19T05:21:00;9.1;;;8.1;;
68319;SDS011;55168;51.120;17.024;2023-02-19T05:22:00;10.5;;;8.6;;
68319;SDS011;55168;51.120;17.024;2023-02-19T05:23:00;10.5;;;8.6;;
68319;SDS011;55168;51.120;17.024;2023-02-19T05:24:00;10.5;;;8.6;;
68319;SDS011;55168;51.120;17.024;2023-02-19T05:25:00;10.5;;;8.6;;
68319;SDS011;55168;51.120;17.024;2023-02-19T05:26:14;10.5;;;8.6;;
68319;SDS011;55168;51.120;17.024;2023-02-19T05:27:00;9.7;;;8.4;;
68319;SDS011;55168;51.120;17.024;2023-02-19T05:28:00;9.7;;;8.4;;
68319;SDS011;55168;51.120;17.024;2023-02-19T05:29:00;9.7;;;8.4;;
68319;SDS011;55168;51.120;17.024;2023-02-19T05:30:00;9.7;;;8.4;;
68319;SDS011;55168;51.120;17.024;2023-02-19T05:31:04;9.7;;;8.4;;
68319;SDS011;55168;51.120;17.024;2023-02-19T05:32:00;10.9;;;9.1;;
68319;SDS011;55168;51.120;17.024;2023-02-19T05:33:00;10.9;;;9.1;;
68319;SDS011;55168;51.120;17.024;2023-02-19T05:34:00;10.9;;;9.1;;
68319;SDS011;55168;51.120;17.024;2023-02-19T05:35:00;10.9;;;9.1;;
68319;SDS011;55168;51.120;17.024;2023-02-19T05:36:05;10.9;;;9.1;;
68319;SDS011;55168;51.120;17.024;2023-02-19T05:37:00;11.0;;;8.8;;
68319;SDS011;55168;51.120;17.024;2023-02-19T05:38:00;11.0;;;8.8;;
68319;SDS011;55168;51.120;17.024;2023-02-19T05:39:00;11.0;;;8.8;;
68319;SDS011;55168;51.120;17.024;2023-02-19T05:40:00;11.0;;;8.8;;
68319;SDS011;55168;51.120;17.024;2023-02-19T05:41:14;11.0;;;8.8;;
68319;SDS011;55168;51.120;17.024;2023-02-19T05:42:00;11.0;;;8.7;;
68319;SDS011;55168;51.120;17.024;2023-02-19T05:43:00;11.0;;;8.7;;
68319;SDS011;55168;51.120;17.024;2023-02-19T05:44:00;11.0;;;8.7;;
68319;SDS011;55168;51.120;17.024;2023-02-19T05:45:00;11.0;;;8.7;;
68319;SDS011;55168;51.120;17.024;2023-02-19T05:46:00;11.0;;;8.7;;
68319;SDS011;55168;51.120;17.024;2023-02-19T05:47:00;9.9;;;8.9;;
68319;SDS011;55168;51.120;17.024;2023-02-19T05:48:00;9.9;;;8.9;;
68319;SDS011;55168;51.120;17.024;2023-02-19T05:49:00;9.9;;;8.9;;
68319;SDS011;55168;51.120;17.024;2023-02-19T05:50:00;9.9;;;8.9;;
68319;SDS011;55168;51.120;17.024;2023-02-19T05:51:04;9.9;;;8.9;;
68319;SDS011;55168;51.120;17.024;2023-02-19T05:52:00;9.8;;;8.6;;
68319;SDS011;55168;51.120;17.024;2023-02-19T05:53:01;9.8;;;8.6;;
68319;SDS011;55168;51.120;17.024;2023-02-19T05:54:00;9.8;;;8.6;;
68319;SDS011;55168;51.120;17.024;2023-02-19T05:55:00;9.8;;;8.6;;
68319;SDS011;55168;51.120;17.024;2023-02-19T05:56:00;9.8;;;8.6;;
68319;SDS011;55168;51.120;17.024;2023-02-19T05:57:00;10.7;;;8.5;;
68319;SDS011;55168;51.120;17.024;2023-02-19T05:58:00;10.7;;;8.5;;
68319;SDS011;55168;51.120;17.024;2023-02-19T05:59:05;10.7;;;8.5;;
68319;SDS011;55168;51.120;17.024;2023-02-19T06:00:00;10.7;;;8.5;;
68319;SDS011;55168;51.120;17.024;2023-02-19T06:01:00;10.7;;;8.5;;
68319;SDS011;55168;51.120;17.024;2023-02-19T06:02:00;9.7;;;7.9;;
68319;SDS011;55168;51.120;17.024;2023-02-19T06:03:00;9.7;;;7.9;;
68319;SDS011;55168;51.120;17.024;2023-02-19T06:04:00;9.7;;;7.9;;
68319;SDS011;55168;51.120;17.024;2023-02-19T06:05:00;9.7;;;7.9;;
68319;SDS011;55168;51.120;17.024;2023-02-19T06:06:02;9.7;;;7.9;;
68319;SDS011;55168;51.120;17.024;2023-02-19T06:07:00;9.7;;;7.8;;
68319;SDS011;55168;51.120;17.024;2023-02-19T06:08:00;9.7;;;7.8;;
68319;SDS011;55168;51.120;17.024;2023-02-19T06:09:00;9.7;;;7.8;;
68319;SDS011;55168;51.120;17.024;2023-02-19T06:10:01;9.7;;;7.8;;
68319;SDS011;55168;51.120;17.024;2023-02-19T06:11:00;9.7;;;7.8;;
68319;SDS011;55168;51.120;17.024;2023-02-19T06:12:00;8.3;;;7.4;;
68319;SDS011;55168;51.120;17.024;2023-02-19T06:13:00;8.3;;;7.4;;
68319;SDS011;55168;51.120;17.024;2023-02-19T06:14:00;8.3;;;7.4;;
68319;SDS011;55168;51.120;17.024;2023-02-19T06:15:00;8.3;;;7.4;;